| time (UTC) | temp F | wind direction | speed knots | gust knots | rain 1hr in | rain 24hr in | rain mn in | humidity % | barometer mb |
| 20260902223103 | 102 | 291 | 1.7 | 1.7 | 0.00 | 0.00 | 0.00 | 36 | 1012.0 |
| 20260902222602 | 103 | 288 | 0.9 | 0.9 | 0.00 | 0.00 | 0.00 | 35 | 1012.0 |
| 20260902222101 | 104 | 200 | 1.7 | 1.7 | 0.00 | 0.00 | 0.00 | 34 | 1012.0 |
| 20260902221555 | 104 | 278 | 0.9 | 2.6 | 0.00 | 0.00 | 0.00 | 34 | 1012.0 |
| 20260902221050 | 102 | 265 | 0.0 | 0.0 | 0.00 | 0.00 | 0.00 | 36 | 1012.4 |
| 20260902220546 | 102 | 199 | 3.5 | 5.2 | 0.00 | 0.00 | 0.00 | 35 | 1012.4 |
| 20260902220040 | 102 | 287 | 1.7 | 1.7 | 0.00 | 0.00 | 0.00 | 36 | 1012.4 |
| 20260902215536 | 102 | 234 | 3.5 | 4.3 | 0.00 | 0.00 | 0.00 | 37 | 1012.4 |
| 20260902215031 | 102 | 251 | 1.7 | 2.6 | 0.00 | 0.00 | 0.00 | 37 | 1012.4 |
| 20260902214526 | 103 | 202 | 1.7 | 1.7 | 0.00 | 0.00 | 0.00 | 37 | 1012.4 |
| 20260902214025 | 104 | 185 | 0.9 | 1.7 | 0.00 | 0.00 | 0.00 | 36 | 1012.4 |
| 20260902213521 | 103 | 231 | 2.6 | 2.6 | 0.00 | 0.00 | 0.00 | 37 | 1012.4 |
| 20260902213020 | 102 | 244 | 2.6 | 4.3 | 0.00 | 0.00 | 0.00 | 38 | 1012.7 |
| 20260902212516 | 101 | 194 | 3.5 | 7.0 | 0.00 | 0.00 | 0.00 | 39 | 1012.7 |
| 20260902212012 | 100 | 241 | 4.3 | 6.1 | 0.00 | 0.00 | 0.00 | 40 | 1012.7 |
| 20260902211508 | 101 | 210 | 1.7 | 1.7 | 0.00 | 0.00 | 0.00 | 39 | 1012.7 |
| 20260902211002 | 103 | 214 | 2.6 | 7.0 | 0.00 | 0.00 | 0.00 | 38 | 1012.7 |
| 20260902210456 | 103 | 226 | 2.6 | 2.6 | 0.00 | 0.00 | 0.00 | 37 | 1012.7 |
| 20260902205955 | 104 | 40 | 2.6 | 2.6 | 0.00 | 0.00 | 0.00 | 36 | 1012.7 |
| 20260902205450 | 104 | 206 | 0.0 | 0.9 | 0.00 | 0.00 | 0.00 | 34 | 1012.7 |
| 20260902204946 | 103 | 255 | 0.9 | 0.9 | 0.00 | 0.00 | 0.00 | 36 | 1012.7 |
| 20260902204445 | 102 | 248 | 0.0 | 0.9 | 0.00 | 0.00 | 0.00 | 37 | 1013.1 |
| 20260902203941 | 102 | 316 | 0.9 | 0.9 | 0.00 | 0.00 | 0.00 | 37 | 1013.5 |
| 20260902203436 | 103 | 222 | 1.7 | 1.7 | 0.00 | 0.00 | 0.00 | 36 | 1013.1 |
| 20260902202935 | 104 | 248 | 3.5 | 6.1 | 0.00 | 0.00 | 0.00 | 36 | 1013.5 |
| 20260902202431 | 103 | 222 | 0.9 | 0.9 | 0.00 | 0.00 | 0.00 | 37 | 1013.5 |
| 20260902201927 | 104 | 245 | 0.9 | 1.7 | 0.00 | 0.00 | 0.00 | 36 | 1013.5 |
| 20260902201422 | 101 | 293 | 0.9 | 0.9 | 0.00 | 0.00 | 0.00 | 38 | 1013.5 |
| 20260902200917 | 101 | 222 | 0.9 | 1.7 | 0.00 | 0.00 | 0.00 | 38 | 1013.5 |
| 20260902200412 | 103 | 215 | 0.0 | 0.9 | 0.00 | 0.00 | 0.00 | 37 | 1013.8 |
| 20260902195907 | 103 | 265 | 0.0 | 0.0 | 0.00 | 0.00 | 0.00 | 37 | 1013.8 |
| 20260902195402 | 102 | 214 | 2.6 | 4.3 | 0.00 | 0.00 | 0.00 | 37 | 1013.8 |
| 20260902194856 | 104 | 307 | 0.0 | 0.0 | 0.00 | 0.00 | 0.00 | 37 | 1014.1 |
| 20260902194357 | 104 | 283 | 0.9 | 1.7 | 0.00 | 0.00 | 0.00 | 37 | 1014.1 |
| 20260902193851 | 104 | 300 | 0.9 | 1.7 | 0.00 | 0.00 | 0.00 | 36 | 1014.1 |
| 20260902193348 | 103 | 259 | 0.0 | 0.0 | 0.00 | 0.00 | 0.00 | 36 | 1014.1 |
| 20260902192846 | 100 | 248 | 1.7 | 1.7 | 0.00 | 0.00 | 0.00 | 39 | 1014.5 |
| 20260902192345 | 100 | 167 | 2.6 | 2.6 | 0.00 | 0.00 | 0.00 | 39 | 1014.1 |
| 20260902191839 | 101 | 191 | 2.6 | 2.6 | 0.00 | 0.00 | 0.00 | 38 | 1014.5 |
| 20260902191335 | 103 | 192 | 3.5 | 6.1 | 0.00 | 0.00 | 0.00 | 37 | 1014.5 |
| 20260902190830 | 102 | 256 | 0.9 | 0.9 | 0.00 | 0.00 | 0.00 | 38 | 1014.5 |
| 20260902190329 | 104 | 175 | 1.7 | 2.6 | 0.00 | 0.00 | 0.00 | 37 | 1014.8 |
| 20260902185826 | 102 | 297 | 0.9 | 0.9 | 0.00 | 0.00 | 0.00 | 38 | 1014.8 |
| 20260902185321 | 104 | 238 | 3.5 | 4.3 | 0.00 | 0.00 | 0.00 | 36 | 1014.8 |
| 20260902184816 | 103 | 238 | 1.7 | 1.7 | 0.00 | 0.00 | 0.00 | 37 | 1014.8 |
| 20260902184312 | 101 | 78 | 2.6 | 5.2 | 0.00 | 0.00 | 0.00 | 39 | 1014.8 |
| 20260902183807 | 101 | 186 | 3.5 | 5.2 | 0.00 | 0.00 | 0.00 | 39 | 1015.2 |
| 20260902183303 | 102 | 193 | 0.9 | 0.9 | 0.00 | 0.00 | 0.00 | 39 | 1015.2 |
| 20260902182759 | 101 | 284 | 0.9 | 1.7 | 0.00 | 0.00 | 0.00 | 39 | 1015.5 |
| 20260902182255 | 100 | 177 | 2.6 | 2.6 | 0.00 | 0.00 | 0.00 | 40 | 1015.5 |
| 20260902181751 | 101 | 226 | 0.9 | 1.7 | 0.00 | 0.00 | 0.00 | 39 | 1015.5 |
| 20260902181246 | 100 | 198 | 1.7 | 1.7 | 0.00 | 0.00 | 0.00 | 40 | 1015.5 |
| 20260902180740 | 101 | 301 | 2.6 | 2.6 | 0.00 | 0.00 | 0.00 | 40 | 1015.5 |
| 20260902180236 | 100 | 224 | 0.9 | 1.7 | 0.00 | 0.00 | 0.00 | 40 | 1016.2 |
| 20260902175731 | 100 | 209 | 5.2 | 6.1 | 0.00 | 0.00 | 0.00 | 40 | 1015.8 |
| 20260902175227 | 100 | 187 | 2.6 | 2.6 | 0.00 | 0.00 | 0.00 | 41 | 1016.2 |
| 20260902174723 | 100 | 192 | 2.6 | 4.3 | 0.00 | 0.00 | 0.00 | 42 | 1016.2 |
| 20260902174218 | 99 | 221 | 2.6 | 4.3 | 0.00 | 0.00 | 0.00 | 42 | 1016.2 |
| 20260902173714 | 99 | 214 | 3.5 | 4.3 | 0.00 | 0.00 | 0.00 | 42 | 1016.2 |
| 20260902173208 | 98 | 195 | 0.9 | 1.7 | 0.00 | 0.00 | 0.00 | 44 | 1016.5 |
| 20260902172703 | 99 | 183 | 4.3 | 5.2 | 0.00 | 0.00 | 0.00 | 43 | 1016.5 |
| 20260902172202 | 98 | 160 | 0.9 | 1.7 | 0.00 | 0.00 | 0.00 | 44 | 1016.5 |
| 20260902171657 | 98 | 272 | 1.7 | 2.6 | 0.00 | 0.00 | 0.00 | 44 | 1016.5 |
| 20260902171153 | 100 | 261 | 0.9 | 0.9 | 0.00 | 0.00 | 0.00 | 43 | 1016.9 |
| 20260902170649 | 100 | 299 | 0.9 | 0.9 | 0.00 | 0.00 | 0.00 | 44 | 1016.9 |
| 20260902170144 | 98 | 181 | 0.9 | 0.9 | 0.00 | 0.00 | 0.00 | 45 | 1017.2 |
| 20260902165638 | 98 | 261 | 0.9 | 1.7 | 0.00 | 0.00 | 0.00 | 45 | 1016.9 |
| 20260902165133 | 97 | 275 | 0.9 | 0.9 | 0.00 | 0.00 | 0.00 | 46 | 1016.9 |
| 20260902164628 | 96 | 256 | 0.0 | 0.9 | 0.00 | 0.00 | 0.00 | 48 | 1017.2 |
| 20260902164127 | 96 | 161 | 3.5 | 5.2 | 0.00 | 0.00 | 0.00 | 48 | 1017.2 |
| 20260902163622 | 96 | 212 | 1.7 | 2.6 | 0.00 | 0.00 | 0.00 | 49 | 1017.2 |
| 20260902163121 | 95 | 204 | 1.7 | 2.6 | 0.00 | 0.00 | 0.00 | 50 | 1017.2 |
| 20260902162620 | 95 | 222 | 2.6 | 2.6 | 0.00 | 0.00 | 0.00 | 50 | 1017.2 |
| 20260902162115 | 94 | 260 | 0.9 | 1.7 | 0.00 | 0.00 | 0.00 | 51 | 1017.2 |
| 20260902161610 | 94 | 190 | 2.6 | 4.3 | 0.00 | 0.00 | 0.00 | 51 | 1017.2 |
| 20260902161106 | 94 | 188 | 2.6 | 4.3 | 0.00 | 0.00 | 0.00 | 51 | 1017.2 |
| 20260902160602 | 96 | 148 | 0.9 | 1.7 | 0.00 | 0.00 | 0.00 | 50 | 1017.2 |
| 20260902160057 | 94 | 262 | 0.9 | 1.7 | 0.00 | 0.00 | 0.00 | 50 | 1016.9 |
| 20260902155549 | 92 | 206 | 2.6 | 2.6 | 0.00 | 0.00 | 0.00 | 53 | 1017.2 |
| 20260902155048 | 93 | 176 | 2.6 | 4.3 | 0.00 | 0.00 | 0.00 | 53 | 1017.2 |
| 20260902154544 | 92 | 139 | 2.6 | 2.6 | 0.00 | 0.00 | 0.00 | 54 | 1017.2 |
| 20260902154039 | 93 | 197 | 5.2 | 6.1 | 0.00 | 0.00 | 0.00 | 52 | 1017.2 |
| 20260902153537 | 93 | 260 | 0.9 | 0.9 | 0.00 | 0.00 | 0.00 | 53 | 1017.2 |
| 20260902153033 | 93 | 190 | 2.6 | 2.6 | 0.00 | 0.00 | 0.00 | 54 | 1017.2 |
| 20260902152529 | 92 | 132 | 1.7 | 1.7 | 0.00 | 0.00 | 0.00 | 56 | 1017.2 |
| 20260902152025 | 91 | 255 | 0.9 | 0.9 | 0.00 | 0.00 | 0.00 | 57 | 1017.2 |
| 20260902151520 | 91 | 269 | 0.0 | 0.9 | 0.00 | 0.00 | 0.00 | 57 | 1017.2 |
| 20260902151019 | 90 | 274 | 1.7 | 2.6 | 0.00 | 0.00 | 0.00 | 58 | 1017.2 |
| 20260902150515 | 89 | 317 | 1.7 | 2.6 | 0.00 | 0.00 | 0.00 | 60 | 1017.2 |
| 20260902150010 | 90 | 258 | 1.7 | 1.7 | 0.00 | 0.00 | 0.00 | 59 | 1017.2 |
| 20260902145505 | 89 | 289 | 0.0 | 0.9 | 0.00 | 0.00 | 0.00 | 61 | 1017.2 |
| 20260902144959 | 88 | 246 | 1.7 | 1.7 | 0.00 | 0.00 | 0.00 | 63 | 1017.2 |
| 20260902144456 | 87 | 196 | 0.9 | 1.7 | 0.00 | 0.00 | 0.00 | 66 | 1017.2 |
| 20260902143950 | 87 | 201 | 5.2 | 7.0 | 0.00 | 0.00 | 0.00 | 65 | 1017.2 |
| 20260902143445 | 87 | 222 | 2.6 | 2.6 | 0.00 | 0.00 | 0.00 | 65 | 1017.5 |
| 20260902142940 | 87 | 202 | 2.6 | 4.3 | 0.00 | 0.00 | 0.00 | 66 | 1017.2 |
| 20260902142436 | 87 | 234 | 2.6 | 4.3 | 0.00 | 0.00 | 0.00 | 66 | 1017.2 |
| 20260902141932 | 88 | 287 | 1.7 | 1.7 | 0.00 | 0.00 | 0.00 | 65 | 1017.5 |
| 20260902141427 | 87 | 242 | 3.5 | 5.2 | 0.00 | 0.00 | 0.00 | 67 | 1017.2 |
| 20260902140926 | 87 | 193 | 3.5 | 6.1 | 0.00 | 0.00 | 0.00 | 67 | 1017.5 |
| 20260902140422 | 86 | 256 | 0.0 | 0.0 | 0.00 | 0.00 | 0.00 | 68 | 1017.2 |
| 20260902135921 | 86 | 237 | 1.7 | 2.6 | 0.00 | 0.00 | 0.00 | 69 | 1017.2 |
| 20260902135418 | 85 | 242 | 0.0 | 0.9 | 0.00 | 0.00 | 0.00 | 69 | 1017.2 |
| 20260902134916 | 84 | 254 | 0.9 | 0.9 | 0.00 | 0.00 | 0.00 | 70 | 1017.2 |
| 20260902134412 | 84 | 262 | 0.0 | 0.0 | 0.00 | 0.00 | 0.00 | 72 | 1017.2 |
| 20260902133913 | 84 | 265 | 0.9 | 0.9 | 0.00 | 0.00 | 0.00 | 72 | 1017.2 |
| 20260902133407 | 82 | 206 | 1.7 | 1.7 | 0.00 | 0.00 | 0.00 | 73 | 1017.5 |
| 20260902132902 | 82 | 250 | 1.7 | 1.7 | 0.00 | 0.00 | 0.00 | 75 | 1017.2 |
| 20260902132357 | 81 | 223 | 0.9 | 0.9 | 0.00 | 0.00 | 0.00 | 76 | 1017.2 |
| 20260902131852 | 81 | 217 | 1.7 | 2.6 | 0.00 | 0.00 | 0.00 | 76 | 1017.2 |
| 20260902131349 | 80 | 232 | 0.9 | 0.9 | 0.00 | 0.00 | 0.00 | 78 | 1017.2 |
| 20260902130848 | 80 | 227 | 1.7 | 1.7 | 0.00 | 0.00 | 0.00 | 79 | 1017.2 |
| 20260902130344 | 79 | 236 | 0.0 | 0.0 | 0.00 | 0.00 | 0.00 | 81 | 1016.9 |
| 20260902125839 | 79 | 264 | 0.0 | 0.9 | 0.00 | 0.00 | 0.00 | 81 | 1016.9 |
| 20260902125335 | 78 | 200 | 1.7 | 2.6 | 0.00 | 0.00 | 0.00 | 82 | 1016.9 |
| 20260902124831 | 78 | 250 | 0.9 | 0.9 | 0.00 | 0.00 | 0.00 | 82 | 1016.9 |
| 20260902124326 | 78 | 204 | 0.0 | 0.0 | 0.00 | 0.00 | 0.00 | 83 | 1016.9 |
| 20260902123821 | 77 | 206 | 0.9 | 1.7 | 0.00 | 0.00 | 0.00 | 84 | 1016.9 |
| 20260902123318 | 77 | 248 | 0.0 | 0.0 | 0.00 | 0.00 | 0.00 | 85 | 1016.9 |
| 20260902122816 | 77 | 242 | 0.0 | 0.0 | 0.00 | 0.00 | 0.00 | 85 | 1016.5 |
| 20260902122313 | 77 | 241 | 0.0 | 0.0 | 0.00 | 0.00 | 0.00 | 85 | 1016.9 |
| 20260902121812 | 77 | 242 | 0.0 | 0.0 | 0.00 | 0.00 | 0.00 | 85 | 1016.5 |
| 20260902121307 | 77 | 229 | 0.0 | 0.0 | 0.00 | 0.00 | 0.00 | 85 | 1016.5 |
| 20260902120803 | 77 | 213 | 0.9 | 0.9 | 0.00 | 0.00 | 0.00 | 84 | 1016.5 |
| 20260902120259 | 78 | 235 | 0.0 | 0.0 | 0.00 | 0.00 | 0.00 | 83 | 1016.5 |
| 20260902115754 | 77 | 247 | 0.0 | 0.0 | 0.00 | 0.00 | 0.00 | 83 | 1016.5 |
| 20260902115250 | 77 | 246 | 0.0 | 0.0 | 0.00 | 0.00 | 0.00 | 84 | 1016.5 |
| 20260902114746 | 77 | 246 | 0.0 | 0.0 | 0.00 | 0.00 | 0.00 | 85 | 1016.2 |
| 20260902114242 | 77 | 247 | 0.0 | 0.9 | 0.00 | 0.00 | 0.00 | 85 | 1016.2 |
| 20260902113742 | 77 | 270 | 0.0 | 0.0 | 0.00 | 0.00 | 0.00 | 84 | 1016.2 |
| 20260902113237 | 77 | 246 | 0.0 | 0.0 | 0.00 | 0.00 | 0.00 | 84 | 1016.2 |
| 20260902112736 | 77 | 240 | 0.0 | 0.0 | 0.00 | 0.00 | 0.00 | 84 | 1016.2 |
| 20260902112234 | 78 | 246 | 0.0 | 0.9 | 0.00 | 0.00 | 0.00 | 83 | 1016.2 |
| 20260902111729 | 78 | 218 | 0.9 | 0.9 | 0.00 | 0.00 | 0.00 | 82 | 1016.2 |
| 20260902111225 | 78 | 249 | 0.0 | 0.0 | 0.00 | 0.00 | 0.00 | 82 | 1016.2 |
| 20260902110720 | 78 | 245 | 0.0 | 0.0 | 0.00 | 0.00 | 0.00 | 82 | 1016.2 |
| 20260902110216 | 78 | 200 | 0.9 | 0.9 | 0.00 | 0.00 | 0.00 | 82 | 1016.2 |
| 20260902105715 | 78 | 242 | 0.0 | 0.0 | 0.00 | 0.00 | 0.00 | 81 | 1015.8 |
| 20260902105211 | 78 | 207 | 1.7 | 1.7 | 0.00 | 0.00 | 0.00 | 81 | 1016.2 |
| 20260902104706 | 78 | 237 | 0.9 | 0.9 | 0.00 | 0.00 | 0.00 | 81 | 1016.2 |
| 20260902104203 | 79 | 217 | 0.0 | 0.9 | 0.00 | 0.00 | 0.00 | 81 | 1016.2 |
| 20260902103701 | 78 | 216 | 1.7 | 1.7 | 0.00 | 0.00 | 0.00 | 81 | 1016.2 |
| 20260902103156 | 78 | 246 | 0.0 | 0.0 | 0.00 | 0.00 | 0.00 | 82 | 1016.2 |
| 20260902102652 | 78 | 224 | 0.0 | 0.0 | 0.00 | 0.00 | 0.00 | 82 | 1016.2 |
| 20260902102150 | 78 | 226 | 0.0 | 0.9 | 0.00 | 0.00 | 0.00 | 82 | 1016.2 |
| 20260902101645 | 78 | 248 | 0.0 | 0.0 | 0.00 | 0.00 | 0.00 | 82 | 1016.2 |
| 20260902101144 | 79 | 249 | 0.0 | 0.0 | 0.00 | 0.00 | 0.00 | 81 | 1016.2 |
| 20260902100639 | 79 | 247 | 0.0 | 0.0 | 0.00 | 0.00 | 0.00 | 81 | 1016.2 |
| 20260902100134 | 79 | 243 | 0.0 | 0.0 | 0.00 | 0.00 | 0.00 | 81 | 1016.2 |
| 20260902095633 | 79 | 192 | 1.7 | 1.7 | 0.00 | 0.00 | 0.00 | 81 | 1016.2 |
| 20260902095132 | 79 | 237 | 0.0 | 0.9 | 0.00 | 0.00 | 0.00 | 81 | 1016.2 |
| 20260902094628 | 79 | 209 | 0.0 | 0.0 | 0.00 | 0.00 | 0.00 | 81 | 1016.2 |
| 20260902094124 | 79 | 247 | 0.0 | 0.0 | 0.00 | 0.00 | 0.00 | 80 | 1016.2 |
| 20260902093624 | 79 | 225 | 0.0 | 0.0 | 0.00 | 0.00 | 0.00 | 80 | 1016.2 |
| 20260902093119 | 80 | 223 | 1.7 | 1.7 | 0.00 | 0.00 | 0.00 | 79 | 1016.2 |
| 20260902092618 | 80 | 248 | 0.0 | 0.0 | 0.00 | 0.00 | 0.00 | 79 | 1016.2 |
| 20260902092114 | 79 | 222 | 0.9 | 0.9 | 0.00 | 0.00 | 0.00 | 79 | 1016.2 |
| 20260902091609 | 79 | 250 | 0.0 | 0.0 | 0.00 | 0.00 | 0.00 | 79 | 1016.2 |
| 20260902091105 | 80 | 242 | 0.0 | 0.0 | 0.00 | 0.00 | 0.00 | 79 | 1016.2 |
| 20260902090601 | 80 | 249 | 0.0 | 0.0 | 0.00 | 0.00 | 0.00 | 79 | 1016.2 |
| 20260902090059 | 79 | 248 | 0.0 | 0.0 | 0.00 | 0.00 | 0.00 | 79 | 1016.2 |
| 20260902085554 | 79 | 237 | 0.9 | 0.9 | 0.00 | 0.00 | 0.00 | 79 | 1016.2 |
| 20260902085049 | 79 | 229 | 0.9 | 0.9 | 0.00 | 0.00 | 0.00 | 80 | 1016.2 |
| 20260902084545 | 79 | 251 | 0.9 | 0.9 | 0.00 | 0.00 | 0.00 | 81 | 1016.5 |
| 20260902084040 | 79 | 245 | 0.0 | 0.0 | 0.00 | 0.00 | 0.00 | 80 | 1016.2 |
| 20260902083530 | 79 | 224 | 0.0 | 0.0 | 0.00 | 0.00 | 0.00 | 80 | 1016.5 |
| 20260902083024 | 79 | 225 | 0.0 | 0.0 | 0.00 | 0.00 | 0.00 | 79 | 1016.2 |
| 20260902082520 | 80 | 242 | 0.0 | 0.0 | 0.00 | 0.00 | 0.00 | 79 | 1016.2 |
| 20260902082017 | 79 | 231 | 0.0 | 0.0 | 0.00 | 0.00 | 0.00 | 79 | 1016.5 |
| 20260902081513 | 80 | 237 | 0.0 | 0.9 | 0.00 | 0.00 | 0.00 | 79 | 1016.5 |
| 20260902081013 | 80 | 236 | 0.0 | 0.0 | 0.00 | 0.00 | 0.00 | 79 | 1016.5 |
| 20260902080508 | 79 | 244 | 0.0 | 0.0 | 0.00 | 0.00 | 0.00 | 79 | 1016.2 |
| 20260902080004 | 80 | 231 | 0.0 | 0.0 | 0.00 | 0.00 | 0.00 | 79 | 1016.5 |
| 20260902075459 | 80 | 226 | 0.0 | 0.0 | 0.00 | 0.00 | 0.00 | 78 | 1016.5 |
| 20260902074954 | 80 | 232 | 0.0 | 0.9 | 0.00 | 0.00 | 0.00 | 78 | 1016.5 |
| 20260902074450 | 80 | 241 | 0.0 | 0.0 | 0.00 | 0.00 | 0.00 | 78 | 1016.5 |
| 20260902073950 | 80 | 250 | 0.0 | 0.0 | 0.00 | 0.00 | 0.00 | 78 | 1016.5 |
| 20260902073446 | 80 | 234 | 0.0 | 0.0 | 0.00 | 0.00 | 0.00 | 77 | 1016.5 |
| 20260902072942 | 80 | 225 | 0.9 | 0.9 | 0.00 | 0.00 | 0.00 | 77 | 1016.5 |
| 20260902072438 | 80 | 252 | 0.0 | 0.0 | 0.00 | 0.00 | 0.00 | 77 | 1016.5 |
| 20260902071934 | 80 | 219 | 0.0 | 0.0 | 0.00 | 0.00 | 0.00 | 77 | 1016.5 |
| 20260902071433 | 81 | 224 | 0.0 | 0.0 | 0.00 | 0.00 | 0.00 | 76 | 1016.5 |
| 20260902070930 | 81 | 204 | 0.0 | 0.9 | 0.00 | 0.00 | 0.00 | 76 | 1016.5 |
| 20260902070425 | 81 | 255 | 0.0 | 0.0 | 0.00 | 0.00 | 0.00 | 76 | 1016.9 |
| 20260902065924 | 81 | 258 | 0.0 | 0.0 | 0.00 | 0.00 | 0.00 | 76 | 1016.9 |
| 20260902065419 | 81 | 265 | 0.0 | 0.0 | 0.00 | 0.00 | 0.00 | 75 | 1016.5 |
| 20260902064914 | 81 | 247 | 0.0 | 0.0 | 0.00 | 0.00 | 0.00 | 75 | 1016.9 |
| 20260902064410 | 81 | 229 | 0.0 | 0.0 | 0.00 | 0.00 | 0.00 | 75 | 1016.9 |
| 20260902063906 | 81 | 241 | 0.0 | 0.0 | 0.00 | 0.00 | 0.00 | 75 | 1016.9 |
| 20260902063405 | 82 | 251 | 0.0 | 0.0 | 0.00 | 0.00 | 0.00 | 74 | 1016.9 |
| 20260902062901 | 82 | 200 | 0.0 | 0.9 | 0.00 | 0.00 | 0.00 | 74 | 1016.5 |
| 20260902062359 | 82 | 235 | 0.0 | 0.0 | 0.00 | 0.00 | 0.00 | 74 | 1016.5 |
| 20260902061859 | 82 | 247 | 0.0 | 0.0 | 0.00 | 0.00 | 0.00 | 73 | 1016.9 |
| 20260902061355 | 82 | 253 | 0.0 | 0.0 | 0.00 | 0.00 | 0.00 | 72 | 1016.9 |
| 20260902060851 | 83 | 259 | 0.0 | 0.0 | 0.00 | 0.00 | 0.00 | 72 | 1016.5 |
| 20260902060346 | 83 | 229 | 0.9 | 0.9 | 0.00 | 0.00 | 0.00 | 72 | 1016.9 |
| 20260902055842 | 83 | 248 | 0.0 | 0.0 | 0.00 | 0.00 | 0.00 | 71 | 1016.5 |
| 20260902055338 | 83 | 246 | 0.0 | 0.9 | 0.00 | 0.00 | 0.00 | 70 | 1016.5 |
| 20260902054833 | 84 | 251 | 0.0 | 0.9 | 0.00 | 0.00 | 0.00 | 70 | 1016.5 |
| 20260902054329 | 84 | 235 | 0.0 | 0.0 | 0.00 | 0.00 | 0.00 | 69 | 1016.5 |
| 20260902053824 | 84 | 259 | 0.0 | 0.0 | 0.00 | 0.00 | 0.00 | 69 | 1016.5 |
| 20260902053319 | 84 | 220 | 0.9 | 0.9 | 0.00 | 0.00 | 0.00 | 69 | 1016.5 |
| 20260902052818 | 84 | 225 | 1.7 | 1.7 | 0.00 | 0.00 | 0.00 | 69 | 1016.2 |
| 20260902052313 | 84 | 223 | 0.9 | 0.9 | 0.00 | 0.00 | 0.00 | 69 | 1016.2 |
| 20260902051809 | 84 | 202 | 0.9 | 0.9 | 0.00 | 0.00 | 0.00 | 69 | 1016.5 |
| 20260902051308 | 84 | 228 | 0.0 | 0.0 | 0.00 | 0.00 | 0.00 | 68 | 1016.5 |
| 20260902050803 | 84 | 236 | 0.0 | 0.9 | 0.00 | 0.00 | 0.00 | 68 | 1016.5 |
| 20260902050303 | 84 | 233 | 0.0 | 0.0 | 0.00 | 0.00 | 0.00 | 68 | 1016.5 |
| 20260902045757 | 85 | 236 | 0.9 | 0.9 | 0.00 | 0.00 | 0.00 | 68 | 1016.5 |
| 20260902045253 | 85 | 249 | 0.0 | 0.9 | 0.00 | 0.00 | 0.00 | 67 | 1016.5 |
| 20260902044749 | 85 | 211 | 0.9 | 0.9 | 0.00 | 0.00 | 0.00 | 67 | 1016.5 |
| 20260902044244 | 86 | 134 | 0.9 | 0.9 | 0.00 | 0.00 | 0.00 | 65 | 1016.5 |
| 20260902043739 | 86 | 193 | 2.6 | 2.6 | 0.00 | 0.00 | 0.00 | 65 | 1016.5 |
| 20260902043235 | 86 | 192 | 2.6 | 4.3 | 0.00 | 0.00 | 0.00 | 65 | 1016.5 |
| 20260902042734 | 86 | 159 | 0.9 | 1.7 | 0.00 | 0.00 | 0.00 | 65 | 1016.5 |
| 20260902042229 | 86 | 233 | 0.9 | 0.9 | 0.00 | 0.00 | 0.00 | 64 | 1016.5 |
| 20260902041724 | 86 | 253 | 0.0 | 0.9 | 0.00 | 0.00 | 0.00 | 64 | 1016.5 |
| 20260902041218 | 86 | 215 | 1.7 | 1.7 | 0.00 | 0.00 | 0.00 | 63 | 1016.5 |
| 20260902040718 | 86 | 204 | 0.9 | 1.7 | 0.00 | 0.00 | 0.00 | 63 | 1016.5 |
| 20260902040214 | 86 | 166 | 3.5 | 4.3 | 0.00 | 0.00 | 0.00 | 63 | 1016.2 |
| 20260902035712 | 87 | 245 | 0.0 | 0.0 | 0.00 | 0.00 | 0.00 | 62 | 1016.2 |
| 20260902035208 | 87 | 212 | 0.9 | 0.9 | 0.00 | 0.00 | 0.00 | 61 | 1016.2 |
| 20260902034707 | 87 | 168 | 0.9 | 1.7 | 0.00 | 0.00 | 0.00 | 61 | 1016.2 |
| 20260902034206 | 87 | 205 | 0.0 | 0.9 | 0.00 | 0.00 | 0.00 | 60 | 1016.2 |
| 20260902033705 | 87 | 222 | 2.6 | 2.6 | 0.00 | 0.00 | 0.00 | 60 | 1016.2 |
| 20260902033200 | 87 | 151 | 0.9 | 1.7 | 0.00 | 0.00 | 0.00 | 60 | 1015.8 |
| 20260902032658 | 87 | 244 | 0.0 | 0.0 | 0.00 | 0.00 | 0.00 | 59 | 1015.8 |
| 20260902032154 | 87 | 233 | 0.9 | 0.9 | 0.00 | 0.00 | 0.00 | 59 | 1015.8 |
| 20260902031648 | 87 | 213 | 0.9 | 1.7 | 0.00 | 0.00 | 0.00 | 59 | 1015.8 |
| 20260902031144 | 88 | 226 | 0.9 | 0.9 | 0.00 | 0.00 | 0.00 | 58 | 1015.8 |
| 20260902030640 | 88 | 231 | 0.0 | 0.9 | 0.00 | 0.00 | 0.00 | 58 | 1015.8 |
| 20260902030139 | 88 | 226 | 0.0 | 0.9 | 0.00 | 0.00 | 0.00 | 58 | 1015.5 |
| 20260902025638 | 88 | 229 | 0.0 | 0.0 | 0.00 | 0.00 | 0.00 | 58 | 1015.5 |
| 20260902025134 | 88 | 131 | 0.9 | 1.7 | 0.00 | 0.00 | 0.00 | 57 | 1015.5 |
| 20260902024629 | 88 | 138 | 0.9 | 1.7 | 0.00 | 0.00 | 0.00 | 57 | 1015.5 |
| 20260902024124 | 89 | 126 | 0.9 | 0.9 | 0.00 | 0.00 | 0.00 | 57 | 1015.2 |
| 20260902023619 | 89 | 233 | 0.0 | 0.0 | 0.00 | 0.00 | 0.00 | 57 | 1015.2 |
| 20260902023109 | 89 | 159 | 0.0 | 0.9 | 0.00 | 0.00 | 0.00 | 56 | 1015.2 |
| 20260902022608 | 89 | 235 | 0.0 | 0.0 | 0.00 | 0.00 | 0.00 | 56 | 1014.8 |
| 20260902022104 | 89 | 239 | 0.0 | 0.0 | 0.00 | 0.00 | 0.00 | 56 | 1014.8 |
| 20260902021559 | 89 | 167 | 0.9 | 1.7 | 0.00 | 0.00 | 0.00 | 55 | 1014.5 |
| 20260902021054 | 89 | 214 | 0.0 | 0.9 | 0.00 | 0.00 | 0.00 | 55 | 1014.8 |
| 20260902020550 | 90 | 251 | 0.0 | 0.0 | 0.00 | 0.00 | 0.00 | 55 | 1014.5 |
| 20260902020046 | 90 | 133 | 0.9 | 1.7 | 0.00 | 0.00 | 0.00 | 54 | 1014.5 |
| 20260902015542 | 90 | 166 | 0.0 | 0.9 | 0.00 | 0.00 | 0.00 | 54 | 1014.5 |
| 20260902015037 | 90 | 168 | 0.0 | 0.9 | 0.00 | 0.00 | 0.00 | 54 | 1014.5 |
| 20260902014533 | 91 | 110 | 0.9 | 1.7 | 0.00 | 0.00 | 0.00 | 53 | 1014.5 |
| 20260902014028 | 91 | 153 | 1.7 | 1.7 | 0.00 | 0.00 | 0.00 | 53 | 1014.5 |
| 20260902013527 | 91 | 141 | 0.9 | 1.7 | 0.00 | 0.00 | 0.00 | 53 | 1014.1 |
| 20260902013023 | 91 | 155 | 0.9 | 0.9 | 0.00 | 0.00 | 0.00 | 52 | 1014.5 |
| 20260902012519 | 92 | 158 | 1.7 | 1.7 | 0.00 | 0.00 | 0.00 | 52 | 1014.1 |
| 20260902012014 | 92 | 187 | 2.6 | 2.6 | 0.00 | 0.00 | 0.00 | 51 | 1014.1 |
| 20260902011509 | 92 | 199 | 0.9 | 1.7 | 0.00 | 0.00 | 0.00 | 51 | 1014.1 |
| 20260902011009 | 93 | 278 | 1.7 | 1.7 | 0.00 | 0.00 | 0.00 | 50 | 1013.8 |
| 20260902010509 | 93 | 268 | 0.9 | 0.9 | 0.00 | 0.00 | 0.00 | 48 | 1014.5 |
| 20260902010004 | 94 | 118 | 5.2 | 6.1 | 0.00 | 0.00 | 0.00 | 48 | 1014.1 |
| 20260902005502 | 95 | 128 | 4.3 | 5.2 | 0.00 | 0.00 | 0.00 | 45 | 1013.8 |
| 20260902004959 | 95 | 181 | 4.3 | 6.1 | 0.00 | 0.00 | 0.00 | 44 | 1014.1 |
| 20260902004457 | 95 | 85 | 3.5 | 5.2 | 0.00 | 0.00 | 0.00 | 44 | 1014.1 |
| 20260902003953 | 95 | 149 | 4.3 | 5.2 | 0.00 | 0.00 | 0.00 | 43 | 1014.1 |
| 20260902003448 | 96 | 170 | 0.0 | 0.9 | 0.00 | 0.00 | 0.00 | 43 | 1014.1 |
| 20260902002944 | 96 | 235 | 0.9 | 1.7 | 0.00 | 0.00 | 0.00 | 42 | 1014.1 |
| 20260902002439 | 96 | 162 | 1.7 | 2.6 | 0.00 | 0.00 | 0.00 | 41 | 1014.1 |
| 20260902001938 | 97 | 95 | 0.0 | 0.9 | 0.00 | 0.00 | 0.00 | 41 | 1014.1 |
| 20260902001433 | 97 | 155 | 0.0 | 0.9 | 0.00 | 0.00 | 0.00 | 41 | 1014.1 |
| 20260902000928 | 97 | 64 | 1.7 | 1.7 | 0.00 | 0.00 | 0.00 | 40 | 1014.1 |
| 20260902000424 | 97 | 138 | 4.3 | 5.2 | 0.00 | 0.00 | 0.00 | 40 | 1014.1 |
| 20260901235918 | 97 | 143 | 3.5 | 5.2 | 0.00 | 0.00 | 0.00 | 40 | 1014.1 |
| 20260901235413 | 97 | 91 | 0.9 | 0.9 | 0.00 | 0.00 | 0.00 | 40 | 1014.1 |
| 20260901234908 | 98 | 115 | 1.7 | 1.7 | 0.00 | 0.00 | 0.00 | 40 | 1014.1 |
| 20260901234402 | 98 | 188 | 1.7 | 1.7 | 0.00 | 0.00 | 0.00 | 40 | 1014.1 |
| 20260901233857 | 98 | 228 | 0.0 | 0.0 | 0.00 | 0.00 | 0.00 | 41 | 1014.1 |
| 20260901233352 | 98 | 160 | 2.6 | 4.3 | 0.00 | 0.00 | 0.00 | 41 | 1014.1 |
| 20260901232848 | 98 | 134 | 1.7 | 2.6 | 0.00 | 0.00 | 0.00 | 41 | 1013.8 |
| 20260901232343 | 98 | 133 | 0.9 | 2.6 | 0.00 | 0.00 | 0.00 | 41 | 1014.1 |
| 20260901231839 | 98 | 157 | 3.5 | 5.2 | 0.00 | 0.00 | 0.00 | 41 | 1014.1 |
| 20260901231335 | 99 | 43 | 0.0 | 0.9 | 0.00 | 0.00 | 0.00 | 40 | 1013.8 |
| 20260901230831 | 98 | 59 | 0.0 | 0.9 | 0.00 | 0.00 | 0.00 | 41 | 1014.1 |
| 20260901230331 | 99 | 97 | 0.9 | 1.7 | 0.00 | 0.00 | 0.00 | 40 | 1014.1 |
| 20260901225826 | 99 | 99 | 0.0 | 0.0 | 0.00 | 0.00 | 0.00 | 41 | 1013.8 |
| 20260901225325 | 99 | 95 | 1.7 | 2.6 | 0.00 | 0.00 | 0.00 | 41 | 1013.8 |
| 20260901224821 | 98 | 111 | 0.9 | 0.9 | 0.00 | 0.00 | 0.00 | 41 | 1013.8 |
| 20260901224317 | 99 | 156 | 0.9 | 1.7 | 0.00 | 0.00 | 0.00 | 39 | 1013.8 |
| 20260901223813 | 99 | 185 | 1.7 | 2.6 | 0.00 | 0.00 | 0.00 | 39 | 1013.8 |
| 20260901223308 | 99 | 71 | 0.9 | 0.9 | 0.00 | 0.00 | 0.00 | 40 | 1013.8 |